createdAt,value
2023-02-19T00:02:02.600Z,5.97
2023-02-19T00:04:30.949Z,5.57
2023-02-19T00:07:00.373Z,5.28
2023-02-19T00:09:30.319Z,5.25
2023-02-19T00:11:59.029Z,7.03
2023-02-19T00:14:28.180Z,5.32
2023-02-19T00:16:57.121Z,5.47
2023-02-19T00:19:26.039Z,6.03
2023-02-19T00:21:55.470Z,4.60
2023-02-19T00:24:23.880Z,5.72
2023-02-19T00:26:55.397Z,5.72
2023-02-19T00:29:25.561Z,4.82
2023-02-19T00:31:53.994Z,5.15
2023-02-19T00:34:23.301Z,5.63
2023-02-19T00:36:52.781Z,5.40
2023-02-19T00:39:21.632Z,5.57
2023-02-19T00:41:51.427Z,6.50
2023-02-19T00:44:21.561Z,29.80
2023-02-19T00:46:49.951Z,15.48
2023-02-19T00:49:22.108Z,4.93
2023-02-19T00:51:51.400Z,5.30
2023-02-19T00:54:22.867Z,4.45
2023-02-19T00:56:52.867Z,4.90
2023-02-19T00:59:22.604Z,4.75
2023-02-19T01:01:51.937Z,4.28
2023-02-19T01:04:20.393Z,4.20
2023-02-19T01:06:50.961Z,4.20
2023-02-19T01:09:19.266Z,4.10
2023-02-19T01:11:48.593Z,3.88
2023-02-19T01:14:16.972Z,4.30
2023-02-19T01:16:48.588Z,4.97
2023-02-19T01:19:17.014Z,4.63
2023-02-19T01:21:45.725Z,4.45
2023-02-19T01:24:14.453Z,3.90
2023-02-19T01:26:42.754Z,3.75
2023-02-19T01:29:12.380Z,4.07
2023-02-19T01:31:42.112Z,3.75
2023-02-19T01:34:13.811Z,3.72
2023-02-19T01:36:42.124Z,4.05
2023-02-19T01:39:12.815Z,4.40
2023-02-19T01:41:43.058Z,3.97
2023-02-19T01:44:45.899Z,4.22
2023-02-19T01:47:18.119Z,3.97
2023-02-19T01:49:53.904Z,3.83
2023-02-19T01:52:27.165Z,3.83
2023-02-19T01:54:56.335Z,3.50
2023-02-19T01:57:28.062Z,3.85
2023-02-19T02:00:03.588Z,3.17
2023-02-19T02:02:42.648Z,3.67
2023-02-19T02:05:19.217Z,3.72
2023-02-19T02:08:06.320Z,3.67
2023-02-19T02:10:35.069Z,3.55
2023-02-19T02:13:05.269Z,3.83
2023-02-19T02:15:40.617Z,3.70
2023-02-19T02:18:21.128Z,3.03
2023-02-19T02:21:13.435Z,3.10
2023-02-19T02:23:59.544Z,2.47
2023-02-19T02:26:43.253Z,2.65
2023-02-19T02:29:54.398Z,2.60
2023-02-19T02:32:28.701Z,2.25
2023-02-19T02:35:04.457Z,2.53
2023-02-19T02:37:37.824Z,2.00
2023-02-19T02:40:10.771Z,1.98
2023-02-19T02:42:40.921Z,2.65
2023-02-19T02:45:38.752Z,1.98
2023-02-19T02:48:37.441Z,2.33
2023-02-19T02:51:14.260Z,2.08
2023-02-19T02:54:12.187Z,1.90
2023-02-19T02:56:43.082Z,2.50
2023-02-19T02:59:15.821Z,2.65
2023-02-19T03:02:05.907Z,2.00
2023-02-19T03:05:02.655Z,2.00
2023-02-19T03:07:37.616Z,5.35
2023-02-19T03:10:11.286Z,4.70
2023-02-19T03:12:59.783Z,3.13
2023-02-19T03:15:48.892Z,2.28
2023-02-19T03:18:36.791Z,2.17
2023-02-19T03:21:08.799Z,2.33
2023-02-19T03:24:06.713Z,2.45
2023-02-19T03:26:35.259Z,2.03
2023-02-19T03:29:26.429Z,2.10
2023-02-19T03:32:07.212Z,2.20
2023-02-19T03:34:38.643Z,2.17
2023-02-19T03:37:14.110Z,2.03
2023-02-19T03:39:47.683Z,2.10
2023-02-19T03:42:32.472Z,1.85
2023-02-19T03:45:13.929Z,2.50
2023-02-19T03:47:50.248Z,1.80
2023-02-19T03:50:26.570Z,2.10
2023-02-19T03:53:07.713Z,2.22
2023-02-19T03:55:45.806Z,2.28
2023-02-19T03:58:21.736Z,2.15
2023-02-19T04:00:57.270Z,2.30
2023-02-19T04:03:34.134Z,2.20
2023-02-19T04:06:07.331Z,2.33
2023-02-19T04:08:38.303Z,2.05
2023-02-19T04:11:10.062Z,2.50
2023-02-19T04:13:44.807Z,2.25
2023-02-19T04:16:21.699Z,2.35
2023-02-19T04:18:54.595Z,3.00
2023-02-19T04:21:25.091Z,3.15
2023-02-19T04:23:55.423Z,3.35
2023-02-19T04:26:24.332Z,2.30
2023-02-19T04:28:52.657Z,2.53
2023-02-19T04:31:21.079Z,2.22
2023-02-19T04:33:51.412Z,2.40
2023-02-19T04:36:19.822Z,2.30
2023-02-19T04:38:48.163Z,2.45
2023-02-19T04:41:17.900Z,2.70
2023-02-19T04:43:47.238Z,2.63
2023-02-19T04:46:16.428Z,2.90
2023-02-19T04:48:46.567Z,2.75
2023-02-19T04:51:15.357Z,2.55
2023-02-19T04:53:45.215Z,2.75
2023-02-19T04:56:16.036Z,2.83
2023-02-19T04:58:46.370Z,3.03
2023-02-19T05:01:15.413Z,2.72
2023-02-19T05:03:44.536Z,2.42
2023-02-19T05:06:15.039Z,2.55
2023-02-19T05:08:43.761Z,3.00
2023-02-19T05:11:14.598Z,2.80
2023-02-19T05:13:42.981Z,3.05
2023-02-19T05:16:16.476Z,2.80
2023-02-19T05:18:47.215Z,2.95
2023-02-19T05:21:17.588Z,3.00
2023-02-19T05:23:46.073Z,3.20
2023-02-19T05:26:18.330Z,3.00
2023-02-19T05:28:47.714Z,2.83
2023-02-19T05:31:18.223Z,3.42
2023-02-19T05:33:51.535Z,3.15
2023-02-19T05:36:21.870Z,3.25
2023-02-19T05:38:55.017Z,3.30
2023-02-19T05:41:25.270Z,3.65
2023-02-19T05:43:54.217Z,3.50
2023-02-19T05:46:26.805Z,3.53
2023-02-19T05:48:55.334Z,3.92
2023-02-19T05:51:27.261Z,3.90
2023-02-19T05:53:57.148Z,3.67
2023-02-19T05:56:31.649Z,3.35
2023-02-19T05:59:01.077Z,3.50
2023-02-19T06:01:32.837Z,3.47
2023-02-19T06:04:01.913Z,3.50
2023-02-19T06:06:30.612Z,3.25
2023-02-19T06:08:58.959Z,3.10
2023-02-19T06:11:28.135Z,3.35
2023-02-19T06:13:56.474Z,3.60
2023-02-19T06:16:26.240Z,3.67
2023-02-19T06:18:56.277Z,3.80
2023-02-19T06:21:25.447Z,3.70
2023-02-19T06:23:53.784Z,3.38
2023-02-19T06:26:24.791Z,3.90
2023-02-19T06:28:54.493Z,3.70
2023-02-19T06:31:23.984Z,3.67
2023-02-19T06:33:52.933Z,3.97
2023-02-19T06:36:23.711Z,3.17
2023-02-19T06:38:53.273Z,3.90
2023-02-19T06:41:21.658Z,3.55
2023-02-19T06:43:50.965Z,4.03
2023-02-19T06:46:19.441Z,3.73
2023-02-19T06:49:08.750Z,3.47
2023-02-19T06:51:59.741Z,3.93
2023-02-19T06:54:49.304Z,3.60
2023-02-19T06:57:37.893Z,3.95
2023-02-19T07:00:27.447Z,3.65
2023-02-19T07:03:16.480Z,3.65
2023-02-19T07:06:05.682Z,3.50
2023-02-19T07:08:57.850Z,1.93
2023-02-19T07:11:46.499Z,2.03
2023-02-19T07:14:35.761Z,1.40
2023-02-19T07:17:24.373Z,1.25
2023-02-19T07:20:14.765Z,1.00
2023-02-19T07:23:03.350Z,1.30
2023-02-19T07:25:54.157Z,1.52
2023-02-19T07:28:43.280Z,1.20
2023-02-19T07:31:33.511Z,1.23
2023-02-19T07:34:22.658Z,1.30
2023-02-19T07:37:11.897Z,0.90
2023-02-19T07:40:00.468Z,1.00
2023-02-19T07:42:51.761Z,1.90
2023-02-19T07:45:40.358Z,0.90
2023-02-19T07:48:30.010Z,0.60
2023-02-19T07:51:22.151Z,0.70
2023-02-19T07:54:11.518Z,0.80
2023-02-19T07:57:00.633Z,0.73
2023-02-19T07:59:50.621Z,0.80
2023-02-19T08:03:08.285Z,1.00
2023-02-19T08:05:59.273Z,0.70
2023-02-19T08:08:47.956Z,0.60
2023-02-19T08:11:54.596Z,0.40
2023-02-19T08:14:43.216Z,0.83
2023-02-19T08:17:34.122Z,0.50
2023-02-19T08:20:23.184Z,0.70
2023-02-19T08:23:12.778Z,0.40
2023-02-19T08:26:03.214Z,0.30
2023-02-19T08:28:51.840Z,0.38
2023-02-19T08:31:41.236Z,0.63
2023-02-19T08:34:31.302Z,0.30
2023-02-19T08:37:20.238Z,0.32
2023-02-19T08:40:09.793Z,0.20
2023-02-19T08:43:04.593Z,0.30
2023-02-19T08:45:55.104Z,0.38
2023-02-19T08:48:43.791Z,0.40
2023-02-19T08:51:34.797Z,0.20
2023-02-19T08:54:23.408Z,0.30
2023-02-19T08:57:12.893Z,0.30
2023-02-19T09:00:01.512Z,0.50
2023-02-19T09:02:51.132Z,0.40
2023-02-19T09:05:39.867Z,0.30
2023-02-19T09:08:30.841Z,0.40
2023-02-19T09:11:19.902Z,0.32
2023-02-19T09:14:09.080Z,0.50
2023-02-19T09:16:57.896Z,0.28
2023-02-19T09:19:47.765Z,0.45
2023-02-19T09:22:38.122Z,0.30
2023-02-19T09:25:28.118Z,0.30
2023-02-19T09:28:16.902Z,0.40
2023-02-19T09:31:06.441Z,0.40
2023-02-19T09:33:55.584Z,0.30
2023-02-19T09:36:44.189Z,0.40
2023-02-19T09:39:33.899Z,0.32
2023-02-19T09:42:26.659Z,0.50
2023-02-19T09:45:23.146Z,0.30
2023-02-19T09:48:13.946Z,0.52
2023-02-19T09:51:04.275Z,0.45
2023-02-19T09:53:55.315Z,0.43
2023-02-19T09:56:44.147Z,1.10
2023-02-19T09:59:41.929Z,0.40
2023-02-19T10:02:31.302Z,0.50
2023-02-19T10:05:21.730Z,0.75
2023-02-19T10:08:17.272Z,0.93
2023-02-19T10:11:08.740Z,0.68
2023-02-19T10:14:05.898Z,0.60
2023-02-19T10:17:06.252Z,0.52
2023-02-19T10:19:55.689Z,0.50
2023-02-19T10:22:44.811Z,0.55
2023-02-19T10:25:36.389Z,0.73
2023-02-19T10:28:29.599Z,0.50
2023-02-19T10:31:21.610Z,0.70
2023-02-19T10:34:19.148Z,0.88
2023-02-19T10:37:14.512Z,0.50
2023-02-19T10:40:03.906Z,0.50
2023-02-19T10:42:56.107Z,0.43
2023-02-19T10:45:48.696Z,0.50
2023-02-19T10:48:42.251Z,0.47
2023-02-19T10:51:36.251Z,0.40
2023-02-19T10:54:28.566Z,0.80
2023-02-19T10:57:30.528Z,0.50
2023-02-19T11:00:26.805Z,0.73
2023-02-19T11:03:22.406Z,0.50
2023-02-19T11:06:13.106Z,0.60
2023-02-19T11:09:03.170Z,0.50
2023-02-19T11:11:55.192Z,0.90
2023-02-19T11:14:45.739Z,0.98
2023-02-19T11:17:35.142Z,0.80
2023-02-19T11:20:24.033Z,0.80
2023-02-19T11:23:17.519Z,0.63
2023-02-19T11:26:19.849Z,0.90
2023-02-19T11:29:19.748Z,1.20
2023-02-19T11:32:28.095Z,1.80
2023-02-19T11:35:19.749Z,1.20
2023-02-19T11:38:11.857Z,0.82
2023-02-19T11:41:11.702Z,0.90
2023-02-19T11:44:18.446Z,0.82
2023-02-19T11:47:39.557Z,0.80
2023-02-19T11:50:34.787Z,0.90
2023-02-19T11:53:28.322Z,0.80
2023-02-19T11:56:21.780Z,0.90
2023-02-19T11:59:19.060Z,0.73
2023-02-19T12:02:28.739Z,0.82
2023-02-19T12:05:41.773Z,0.75
2023-02-19T12:09:04.925Z,0.73
2023-02-19T12:12:12.309Z,0.70
2023-02-19T12:15:42.090Z,0.70
2023-02-19T12:19:00.463Z,0.63
2023-02-19T12:22:04.442Z,0.60
2023-02-19T12:25:11.232Z,0.90
2023-02-19T12:28:22.512Z,0.82
2023-02-19T12:31:36.272Z,0.80
2023-02-19T12:35:18.554Z,0.90
2023-02-19T12:38:23.341Z,0.70
2023-02-19T12:41:28.603Z,0.70
2023-02-19T12:44:22.943Z,0.70
2023-02-19T12:47:20.868Z,0.70
2023-02-19T12:50:21.163Z,0.88
2023-02-19T12:53:27.888Z,0.60
2023-02-19T12:56:22.356Z,0.88
2023-02-19T12:59:16.221Z,0.70
2023-02-19T13:02:15.686Z,1.05
2023-02-19T13:05:12.656Z,0.90
2023-02-19T13:08:05.981Z,0.60
2023-02-19T13:10:59.983Z,1.10
2023-02-19T13:13:53.055Z,1.20
2023-02-19T13:16:46.467Z,0.82
2023-02-19T13:19:38.297Z,1.00
2023-02-19T13:22:53.406Z,1.08
2023-02-19T13:25:58.540Z,0.90
2023-02-19T13:29:02.948Z,0.98
2023-02-19T13:32:11.214Z,1.10
2023-02-19T13:35:20.820Z,1.00
2023-02-19T13:38:13.063Z,0.70
2023-02-19T13:41:02.449Z,0.80
2023-02-19T13:44:03.953Z,0.90
2023-02-19T13:46:53.715Z,1.00
2023-02-19T13:49:45.835Z,0.73
2023-02-19T13:52:41.396Z,0.95
2023-02-19T13:55:52.324Z,0.80
2023-02-19T13:59:01.688Z,0.73
2023-02-19T14:02:27.795Z,0.90
2023-02-19T14:05:55.137Z,0.70
2023-02-19T14:08:51.362Z,1.50
2023-02-19T14:12:06.369Z,0.90
2023-02-19T14:14:56.080Z,0.70
2023-02-19T14:17:46.966Z,0.68
2023-02-19T14:20:43.415Z,1.02
2023-02-19T14:23:33.749Z,0.70
2023-02-19T14:26:25.257Z,1.00
2023-02-19T14:29:16.820Z,0.88
2023-02-19T14:32:06.544Z,0.88
2023-02-19T14:34:58.114Z,0.73
2023-02-19T14:37:48.386Z,1.20
2023-02-19T14:40:41.582Z,1.00
2023-02-19T14:43:34.286Z,1.10
2023-02-19T14:46:30.645Z,1.00
2023-02-19T14:49:26.225Z,1.80
2023-02-19T14:52:20.755Z,1.25
2023-02-19T14:55:14.408Z,1.08
2023-02-19T14:58:08.061Z,0.95
2023-02-19T15:00:58.179Z,1.50
2023-02-19T15:03:51.304Z,1.63
2023-02-19T15:06:40.972Z,1.83
2023-02-19T15:09:34.231Z,1.30
2023-02-19T15:12:46.693Z,1.13
2023-02-19T15:15:40.673Z,1.60
2023-02-19T15:18:36.067Z,1.55
2023-02-19T15:21:26.967Z,1.60
2023-02-19T15:24:19.038Z,1.60
2023-02-19T15:27:07.744Z,1.80
2023-02-19T15:29:56.374Z,1.55
2023-02-19T15:32:53.414Z,1.08
2023-02-19T15:35:43.465Z,1.17
2023-02-19T15:38:33.669Z,1.00
2023-02-19T15:41:24.563Z,1.15
2023-02-19T15:44:35.812Z,0.90
2023-02-19T15:47:33.677Z,0.98
2023-02-19T15:50:26.714Z,1.90
2023-02-19T15:53:20.729Z,1.10
2023-02-19T15:56:13.377Z,1.17
2023-02-19T15:59:07.828Z,1.20
2023-02-19T16:01:57.506Z,0.73
2023-02-19T16:04:46.700Z,1.10
2023-02-19T16:07:36.408Z,1.00
2023-02-19T16:10:26.477Z,1.30
2023-02-19T16:13:26.078Z,2.10
2023-02-19T16:16:22.512Z,1.45
2023-02-19T16:19:11.236Z,1.50
2023-02-19T16:22:02.115Z,1.05
2023-02-19T16:24:52.736Z,1.42
2023-02-19T16:27:44.550Z,1.30
2023-02-19T16:30:35.336Z,1.45
2023-02-19T16:33:38.896Z,1.95
2023-02-19T16:36:41.277Z,1.60
2023-02-19T16:39:32.558Z,2.65
2023-02-19T16:42:21.883Z,3.33
2023-02-19T16:45:11.886Z,6.30
2023-02-19T16:48:00.919Z,2.20
2023-02-19T16:50:49.579Z,1.30
2023-02-19T16:53:39.873Z,1.58
2023-02-19T16:56:28.627Z,1.00
2023-02-19T16:59:18.165Z,2.20
2023-02-19T17:02:12.604Z,0.98
2023-02-19T17:05:01.681Z,1.35
2023-02-19T17:07:51.404Z,1.23
2023-02-19T17:10:39.984Z,1.52
2023-02-19T17:13:29.752Z,1.70
2023-02-19T17:16:20.264Z,1.60
2023-02-19T17:19:14.750Z,1.38
2023-02-19T17:22:03.866Z,1.52
2023-02-19T17:24:55.958Z,1.40
2023-02-19T17:27:44.574Z,1.60
2023-02-19T17:30:37.311Z,1.77
2023-02-19T17:33:27.587Z,1.02
2023-02-19T17:36:21.282Z,1.40
2023-02-19T17:39:15.899Z,1.10
2023-02-19T17:42:05.291Z,1.40
2023-02-19T17:44:55.788Z,0.80
2023-02-19T17:47:44.516Z,1.50
2023-02-19T17:50:34.399Z,2.65
2023-02-19T17:53:24.406Z,1.13
2023-02-19T17:56:18.121Z,1.70
2023-02-19T17:59:07.167Z,1.00
2023-02-19T18:01:56.292Z,1.83
2023-02-19T18:04:44.894Z,2.13
2023-02-19T18:07:36.439Z,1.88
2023-02-19T18:10:26.461Z,1.95
2023-02-19T18:13:15.473Z,1.67
2023-02-19T18:16:05.131Z,2.08
2023-02-19T18:18:54.969Z,2.05
2023-02-19T18:21:44.294Z,1.77
2023-02-19T18:24:32.957Z,2.22
2023-02-19T18:27:25.236Z,2.75
2023-02-19T18:30:16.750Z,3.95
2023-02-19T18:33:11.309Z,2.00
2023-02-19T18:35:59.995Z,1.92
2023-02-19T18:38:49.665Z,1.48
2023-02-19T18:41:38.284Z,2.00
2023-02-19T18:44:30.162Z,1.50
2023-02-19T18:47:19.203Z,1.38
2023-02-19T18:50:10.356Z,1.88
2023-02-19T18:52:59.456Z,1.50
2023-02-19T18:55:49.016Z,1.73
2023-02-19T18:58:39.271Z,1.90
2023-02-19T19:01:30.175Z,2.08
2023-02-19T19:04:19.044Z,1.92
2023-02-19T19:07:10.210Z,1.60
2023-02-19T19:09:58.816Z,1.98
2023-02-19T19:12:49.362Z,2.10
2023-02-19T19:15:40.718Z,2.17
2023-02-19T19:18:31.229Z,1.80
2023-02-19T19:21:21.650Z,2.00
2023-02-19T19:24:10.398Z,1.70
2023-02-19T19:27:00.150Z,1.90
2023-02-19T19:29:49.689Z,2.00
2023-02-19T19:32:40.116Z,1.83
2023-02-19T19:35:30.190Z,1.55
2023-02-19T19:38:19.697Z,1.67
2023-02-19T19:41:08.329Z,1.70
2023-02-19T19:43:57.387Z,1.55
2023-02-19T19:46:46.477Z,1.40
2023-02-19T19:49:36.138Z,2.78
2023-02-19T19:52:26.108Z,1.70
2023-02-19T19:55:17.388Z,1.50
2023-02-19T19:58:06.238Z,1.67
2023-02-19T20:00:56.020Z,2.28
2023-02-19T20:03:44.624Z,1.77
2023-02-19T20:06:34.335Z,1.93
2023-02-19T20:09:25.560Z,4.93
2023-02-19T20:12:15.987Z,1.60
2023-02-19T20:15:06.228Z,1.90
2023-02-19T20:17:54.972Z,1.50
2023-02-19T20:20:44.419Z,1.77
2023-02-19T20:23:33.317Z,1.67
2023-02-19T20:26:26.685Z,1.35
2023-02-19T20:29:15.686Z,1.50
2023-02-19T20:32:04.410Z,1.52
2023-02-19T20:34:54.581Z,1.58
2023-02-19T20:37:43.727Z,1.42
2023-02-19T20:40:34.812Z,1.42
2023-02-19T20:43:26.505Z,1.70
2023-02-19T20:46:16.471Z,1.70
2023-02-19T20:49:06.760Z,1.97
2023-02-19T20:51:58.110Z,2.50
2023-02-19T20:54:48.580Z,7.67
2023-02-19T20:57:37.589Z,2.03
2023-02-19T21:00:28.003Z,1.70
2023-02-19T21:03:16.785Z,1.90
2023-02-19T21:06:07.508Z,1.40
2023-02-19T21:08:56.113Z,1.55
2023-02-19T21:11:45.418Z,1.70
2023-02-19T21:14:34.006Z,1.80
2023-02-19T21:17:25.580Z,1.83
2023-02-19T21:20:15.292Z,1.65
2023-02-19T21:23:04.669Z,1.50
2023-02-19T21:25:55.003Z,1.45
2023-02-19T21:28:44.190Z,1.57
2023-02-19T21:31:38.190Z,1.83
2023-02-19T21:34:30.543Z,1.53
2023-02-19T21:37:19.137Z,1.67
2023-02-19T21:40:11.571Z,1.95
2023-02-19T21:43:00.473Z,1.83
2023-02-19T21:45:50.125Z,1.65
2023-02-19T21:48:38.748Z,1.30
2023-02-19T21:51:32.277Z,1.60
2023-02-19T21:54:25.007Z,1.48
2023-02-19T21:57:13.652Z,2.65
2023-02-19T22:00:02.330Z,2.67
2023-02-19T22:02:53.898Z,3.60
2023-02-19T22:05:43.205Z,2.40
2023-02-19T22:08:33.188Z,1.67
2023-02-19T22:11:22.771Z,2.35
2023-02-19T22:14:11.421Z,1.80
2023-02-19T22:17:01.581Z,1.85
2023-02-19T22:19:50.790Z,1.70
2023-02-19T22:22:39.928Z,1.75
2023-02-19T22:25:30.021Z,1.90
2023-02-19T22:28:19.519Z,1.53
2023-02-19T22:31:09.086Z,1.95
2023-02-19T22:33:58.704Z,1.85
2023-02-19T22:36:48.579Z,1.67
2023-02-19T22:39:38.497Z,1.70
2023-02-19T22:42:29.339Z,1.95
2023-02-19T22:45:19.524Z,1.88
2023-02-19T22:48:08.124Z,1.73
2023-02-19T22:50:57.883Z,1.48
2023-02-19T22:53:47.882Z,1.90
2023-02-19T22:56:37.912Z,1.83
2023-02-19T22:59:27.923Z,1.83
2023-02-19T23:02:17.534Z,1.70
2023-02-19T23:05:06.452Z,1.70
2023-02-19T23:07:56.838Z,1.55
2023-02-19T23:10:45.469Z,1.90
2023-02-19T23:13:35.171Z,2.00
2023-02-19T23:16:25.798Z,2.23
2023-02-19T23:19:18.095Z,2.23
2023-02-19T23:22:06.948Z,2.00
2023-02-19T23:24:57.230Z,2.10
2023-02-19T23:27:45.825Z,1.90
2023-02-19T23:30:36.216Z,1.90
2023-02-19T23:33:26.246Z,2.30
2023-02-19T23:36:17.551Z,2.10
2023-02-19T23:39:06.185Z,2.05
2023-02-19T23:41:57.873Z,2.13
2023-02-19T23:44:47.692Z,2.03
2023-02-19T23:47:38.077Z,1.80
2023-02-19T23:50:28.108Z,2.00
2023-02-19T23:53:17.632Z,2.43
2023-02-19T23:56:07.191Z,2.38
2023-02-19T23:58:56.626Z,2.65
